Timeline UpdatesTrip UpdatesNews PostsPvt PostsTravel TipsAdmin PostsConv PostsFollowed PostsChat RequestsBlog PostsPNR Posts

Disclaimer
Search
 
 
Wed Oct 1, 2014 17:44:34 ISTHomeTrainsΣChainsAtlasPNRForumGalleryNewsFAQTripsMembersLoginFeedback
No Recent News for this Train
Other Trains in the News **new
Latest...
Will depart from originating station at 21:30 hours w.e.f. 01.09.2014
Wed Aug 27, 2014 (04:14AM)
⇐ Return Journey: Train# 18006

18005/Samaleshwari Express

Time-Table HAS CHANGED.
Sep 01 (11:55PM)
Change Departure Station:
Change Arrival Station:
Post a Train Travel TipPost a Train Travel Tip **new
Post a Comment/Question/Picture/VideoPost a Comment/Question/Picture/Video
Pantry/Catering
✕ NO Pantry Car
✓ Catering Avbl
Loco/Rake Reversals
RGDA/Rayagada (3); KRPU/Koraput Junction (3);
RSA - Rake Sharing
Rake/Coach Composition
ENGINE-SLR-GS-GS-GS-SK1-SK2-SK3-B1-B2-GS-S1-S2-S3-S4-S5-A1-HA1-GS-SLR.; [Informed by: dmajee3 in blog entry# 1001929] Half Portion Cut off at Sambalpur
Loco
HWH-ROU WAP-4/E SRC,ROU-JDB WDM-3A BNDM
News    PNR    Forum    Time-Table    Availability    Fare Chart    Map    Arr/Dep History    Trips    Gallery    ΣChains    X/O    Timeline    
Travel Time: 0h 33m    0 halts    Distance: 39 km    Avg Speed: 70 km/hr
Type: Mail/Express
Zone: SER/South Eastern
Departs @ 23:50 (Avg 3m late)
Platform# 2
SMTWTFS
Kharagpur Junction/KGP 
Arrives @ 00:23 +1 night (Avg 5m late)
Platform# ???
SMTWTFS
Jhargram/JGM 

0 halts. 5 intermediate Stations between Kharagpur Junction and Jhargram

Show ALL intermediate Stations  Show Old Time-Table

#CodeStation NameX/OArrivesAvgDepartsAvgHaltPFDay#KmSpeedElevZoneAddress
1HWHKolkata Howrah Junction (23)  -21:35 21:30+3171-115.05910mERHowrah 711101, West Bengal
2ULBUluberia (6)  22:09 22:03+1222:10 22:05+131 2m11-82.84310mSERdist - howrah, West Bengal
3BZNBagnan (4)  22:30 22:23+522:31 22:25+61 2m--1-69.9538mSERBagnan, West Bengal
4MCAMecheda (6)O  22:46 22:40+522:47 22:42+71 2m--1-56.84710mSERdist - purba Medinipur, West Bengal
5PKUPanskura Junction (6)  23:04 22:58+223:05 23:00+61 2m--1-44.4599mSERPanskura, West Bengal
6KGPKharagpur Junction (10)»  23:50 23:45+223:55 23:50+35m210.07142mSERKharagpur, West Bengal
7JGMJhargram (4)•  00:29 00:23+500:30 00:25+61 2m--239.17782mSERJhargram, West Bengal
8TATATatanagar Junction (5)X  01:45 01:40+501:50 01:45+65m32135.158164mSER91-657-2423026, Jharkhand
9SINISini Junction (3)  02:17 02:13+1102:18 02:14+121m--2162.054182mSERNational Highway 33, Jharkhand
10RKSNRajkharsawan Junction (3)X  02:34 02:31+1002:35 02:32+121m--2177.357189mSERSaraikela Kharswan District, Jharkhand
11CKPChakradharpur (3)  02:56 02:53+703:03 03:00+87m--2197.478235mSERChakradharpur (West Singhbhum), Jharkhand
12MOUManoharpur  03:50 03:47+1203:51 03:48+131m--2258.659228mSERManoharpur, Jharkhand
13BZRBisra  04:13 04:14+1404:14 04:15+151m--2284.351224mSERSundargarh, Odisha
14BNDMBondamunda (2)  04:23 04:24+1104:24 04:25+121m--2291.920213mSERRourkela, Odisha
15ROURourkela Junction (5)XO  04:45+705:28+1043m32298.440198mSERRourkela, Odisha
16PPOPanposh (2)X  05:37+1405:38+151m22304.441190mSERRourkela, Odisha
17KLGKalunga  05:49+1405:50+151m--2311.942203mSERSundargarh, Odisha
18KXNKanshbahalX  06:00+1406:01+161m--2319.050217mSERSundargarh, Odisha
19GPRaj Gangpur (3)X  06:12+1606:13+181m12328.255237mSERRaj Ganpur, Odisha
20GPHGarpos (3)  06:33+1606:34+171m--2346.765281mSERSundargarh, Odisha
21BMBBamra (3)X  06:49+1506:50+161m--2362.864259mSERBamra PH : 06642-229268, Odisha
22BEHBagdihi (3)  07:05+1707:06+181m--2378.743257mSERState Highway 24 PH: 06640-286227, Odisha
23JSGJharsuguda Junction (5)  07:35+907:50+815m12399.369236mSERJharsuguda, Odisha
24RGLRengaliX  08:14 08:13+2908:15+301 2m--2425.769208mECoRState Highway 10, Odisha
25SBPDSambalpur Road  08:36 08:33+208:37 08:35+21 2m--2446.54161mECoRSambalpur, Odisha
26SBPSambalpur Junction (3)X  08:55+2009:10+2315m--2448.044159mECoRSambalpur, Odisha
27HKGHirakud  09:21 09:20+2709:22+301 2m--2455.475167mECoRBurla, Odisha
28BRGABargarh Road (3)X  09:50+3509:55+435m--2490.577185mECoRBargarh, Odisha
29BRPLBarpali  10:06 10:10+4710:07 10:12+491 2m--2509.7110178mECoRBarpali, Odisha
30BLGRBalangir (3)O  10:43+1:0110:48+1:065m--2566.877210mECoRBolangir, Odisha
31SFCSaintala (2)  11:16 11:15+1:1211:17+1:121 2m--2601.565185mECoRNational Highway 201, Odisha
32BUDMBadmalO  11:26 11:25+1:1411:27+1:161 2m--2610.216209mECoRDumerbahal Rd, Odisha
33TIGTitlagarh Junction (3)X  12:40+2212:50+2210m--2630.164212mECoRTitlagarh, Odisha
34KSNGKesinga (1)  13:04 13:03+2813:05+291 2m12644.165183mECoRKesinga, Odisha
35RPRDRupra RoadX  13:21 13:20+3013:22+301 2m--2660.350233mECoRKalahandi, Odisha
36NRLRNorla Road  13:34 13:30+2613:35 13:32+311 2m--2667.065247mECoRKalahandi, Odisha
37AMBAmbodala  13:59 13:55+1914:00 13:57+231 2m--2691.965374mECoRState Highway 6, Odisha
38MNGDMuniguda  14:29 14:20+1714:30 14:22+221 2m--2716.947335mECoRMuniguda, Odisha
39THVTherubaliO  15:04 15:08+1815:05 15:10+191 2m--2752.9112270mECoRRayagada, Odisha
40SPRDSingapuram Road (2) new halt!!O  15:15-15:17-2m--2762.312248mECoRJaykaypur, Odisha
41RGDARayagada (3)X16:05+516:25+820m--2771.549229mECoRRayagada ph.no 06856-222407, Odisha
42TKRITikiri  18:16+3718:17 18:18+371 2m--2861.548827mECoRTikri, Odisha
43LKMRLaxmipur Road (1)X  18:46 18:45+5018:47+501 2m12883.159898mECoRLakshmipur, Odisha
44DMNJDamanjodi  19:31 19:30+1:0219:32+1:021 2m--2925.535897mECoRDamanjodi, Odisha
45KRPUKoraput Junction (3)20:05+2520:30+2125m--2944.531881mECoRkoraput ph.no. 06852-251502, Odisha
46JYPJeypore (1)  21:51 21:50+3921:52+381 2m--2985.539595mECoRJeypore, Odisha
47JDBJagdalpur  23:30-3---21049.9-569mECoRJagdalpur, Chhattisgarh
Scroll to Top
Scroll to Bottom